createdAt,value
2019-06-27T00:00:48.420Z,0.00
2019-06-27T00:01:48.432Z,0.00
2019-06-27T00:02:48.457Z,0.00
2019-06-27T00:03:48.384Z,0.00
2019-06-27T00:04:48.372Z,0.00
2019-06-27T00:05:48.362Z,0.00
2019-06-27T00:06:48.379Z,0.00
2019-06-27T00:07:48.343Z,0.00
2019-06-27T00:08:48.334Z,0.00
2019-06-27T00:09:48.318Z,0.00
2019-06-27T00:10:48.308Z,0.00
2019-06-27T00:11:48.325Z,0.00
2019-06-27T00:12:48.284Z,0.00
2019-06-27T00:13:48.274Z,0.00
2019-06-27T00:14:48.263Z,0.00
2019-06-27T00:15:48.255Z,0.00
2019-06-27T00:16:48.271Z,0.00
2019-06-27T00:17:48.229Z,0.00
2019-06-27T00:18:48.222Z,0.00
2019-06-27T00:19:48.208Z,0.00
2019-06-27T00:20:48.198Z,0.00
2019-06-27T00:21:48.215Z,0.00
2019-06-27T00:22:48.174Z,0.00
2019-06-27T00:23:48.166Z,0.00
2019-06-27T00:24:48.156Z,0.00
2019-06-27T00:25:48.173Z,0.00
2019-06-27T00:26:57.326Z,0.00
2019-06-27T00:27:49.119Z,0.00
2019-06-27T00:28:48.111Z,0.00
2019-06-27T00:29:48.099Z,0.00
2019-06-27T00:30:48.089Z,0.00
2019-06-27T00:31:48.077Z,0.00
2019-06-27T00:32:48.097Z,0.00
2019-06-27T00:33:48.056Z,0.00
2019-06-27T00:34:48.046Z,0.00
2019-06-27T00:35:48.033Z,0.00
2019-06-27T00:36:48.024Z,0.00
2019-06-27T00:37:48.040Z,0.00
2019-06-27T00:38:48.003Z,0.00
2019-06-27T00:39:47.990Z,0.00
2019-06-27T00:40:47.980Z,0.00
2019-06-27T00:41:47.970Z,0.00
2019-06-27T00:42:47.983Z,0.00
2019-06-27T00:43:47.946Z,0.00
2019-06-27T00:44:47.935Z,0.00
2019-06-27T00:45:47.927Z,0.00
2019-06-27T00:46:47.915Z,0.00
2019-06-27T00:47:47.930Z,0.00
2019-06-27T00:48:47.892Z,0.00
2019-06-27T00:49:47.882Z,0.00
2019-06-27T00:50:47.873Z,0.00
2019-06-27T00:51:47.860Z,0.00
2019-06-27T00:52:47.876Z,0.00
2019-06-27T00:53:47.838Z,0.00
2019-06-27T00:54:47.827Z,0.00
2019-06-27T00:55:47.819Z,0.00
2019-06-27T00:56:47.806Z,0.00
2019-06-27T00:57:47.821Z,0.00
2019-06-27T00:58:47.784Z,0.00
2019-06-27T00:59:47.772Z,0.00
2019-06-27T01:00:47.781Z,0.00
2019-06-27T01:01:47.753Z,0.00
2019-06-27T01:02:47.768Z,0.00
2019-06-27T01:03:47.730Z,0.00
2019-06-27T01:04:47.720Z,0.00
2019-06-27T01:05:47.709Z,0.00
2019-06-27T01:06:47.705Z,0.00
2019-06-27T01:07:47.735Z,0.00
2019-06-27T01:08:47.732Z,0.00
2019-06-27T01:09:47.665Z,0.00
2019-06-27T01:10:47.655Z,0.00
2019-06-27T01:11:47.642Z,0.00
2019-06-27T01:12:47.656Z,0.00
2019-06-27T01:13:47.620Z,0.00
2019-06-27T01:14:47.611Z,0.00
2019-06-27T01:15:47.603Z,0.00
2019-06-27T01:16:47.588Z,0.00
2019-06-27T01:17:47.604Z,0.00
2019-06-27T01:18:47.566Z,0.00
2019-06-27T01:19:47.555Z,0.00
2019-06-27T01:20:47.544Z,0.00
2019-06-27T01:21:47.534Z,0.00
2019-06-27T01:22:47.552Z,0.00
2019-06-27T01:23:47.514Z,0.00
2019-06-27T01:24:47.506Z,0.00
2019-06-27T01:25:47.491Z,0.00
2019-06-27T01:26:47.479Z,0.00
2019-06-27T01:27:47.499Z,0.00
2019-06-27T01:28:47.458Z,0.00
2019-06-27T01:29:47.447Z,0.00
2019-06-27T01:30:47.436Z,0.00
2019-06-27T01:31:47.425Z,0.00
2019-06-27T01:32:47.444Z,0.00
2019-06-27T01:33:47.406Z,0.00
2019-06-27T01:34:47.393Z,0.00
2019-06-27T01:35:47.383Z,0.00
2019-06-27T01:36:47.371Z,0.00
2019-06-27T01:37:47.386Z,0.00
2019-06-27T01:38:47.367Z,0.00
2019-06-27T01:39:47.372Z,0.00
2019-06-27T01:40:47.355Z,0.00
2019-06-27T01:41:47.319Z,0.00
2019-06-27T01:42:47.349Z,0.00
2019-06-27T01:43:47.297Z,0.00
2019-06-27T01:44:47.283Z,0.00
2019-06-27T01:45:47.273Z,0.00
2019-06-27T01:46:47.263Z,0.00
2019-06-27T01:47:47.279Z,0.00
2019-06-27T01:48:47.243Z,0.00
2019-06-27T01:49:47.229Z,0.00
2019-06-27T01:50:47.217Z,0.00
2019-06-27T01:51:47.210Z,0.00
2019-06-27T01:52:47.221Z,0.00
2019-06-27T01:53:47.184Z,0.00
2019-06-27T01:54:47.194Z,0.00
2019-06-27T01:55:47.161Z,0.00
2019-06-27T01:56:47.187Z,0.00
2019-06-27T01:57:47.479Z,0.00
2019-06-27T01:58:47.128Z,0.00
2019-06-27T01:59:47.116Z,0.00
2019-06-27T02:00:47.108Z,0.00
2019-06-27T02:01:47.094Z,0.00
2019-06-27T02:02:47.112Z,0.00
2019-06-27T02:03:47.094Z,0.00
2019-06-27T02:04:47.061Z,0.00
2019-06-27T02:05:47.051Z,0.00
2019-06-27T02:06:47.039Z,0.00
2019-06-27T02:07:47.059Z,0.00
2019-06-27T02:08:47.018Z,0.00
2019-06-27T02:09:47.006Z,0.00
2019-06-27T02:10:46.994Z,0.00
2019-06-27T02:11:46.984Z,0.00
2019-06-27T02:12:47.008Z,0.00
2019-06-27T02:13:46.962Z,0.00
2019-06-27T02:14:46.951Z,0.00
2019-06-27T02:15:46.939Z,0.00
2019-06-27T02:16:46.930Z,0.00
2019-06-27T02:17:46.947Z,0.00
2019-06-27T02:18:46.905Z,0.00
2019-06-27T02:19:46.899Z,0.00
2019-06-27T02:20:46.883Z,0.00
2019-06-27T02:21:46.873Z,0.00
2019-06-27T02:22:46.890Z,0.00
2019-06-27T02:23:46.850Z,0.00
2019-06-27T02:24:46.838Z,0.00
2019-06-27T02:25:46.826Z,0.00
2019-06-27T02:26:46.817Z,0.00
2019-06-27T02:28:02.577Z,0.00
2019-06-27T02:28:47.796Z,0.00
2019-06-27T02:29:46.784Z,0.00
2019-06-27T02:30:46.782Z,0.00
2019-06-27T02:31:46.759Z,0.00
2019-06-27T02:32:46.777Z,0.00
2019-06-27T02:33:46.739Z,0.00
2019-06-27T02:34:46.730Z,4.00
2019-06-27T02:35:46.720Z,4.00
2019-06-27T02:36:46.703Z,4.00
2019-06-27T02:37:46.741Z,0.00
2019-06-27T02:38:46.683Z,0.00
2019-06-27T02:39:46.683Z,4.00
2019-06-27T02:40:46.659Z,4.00
2019-06-27T02:41:46.650Z,4.00
2019-06-27T02:42:46.664Z,4.00
2019-06-27T02:43:46.637Z,4.00
2019-06-27T02:44:46.616Z,4.00
2019-06-27T02:45:46.673Z,4.00
2019-06-27T02:46:46.594Z,4.00
2019-06-27T02:47:46.615Z,8.00
2019-06-27T02:48:46.572Z,8.00
2019-06-27T02:49:49.942Z,8.00
2019-06-27T02:50:46.567Z,12.00
2019-06-27T02:51:46.537Z,16.00
2019-06-27T02:52:46.554Z,12.00
2019-06-27T02:53:46.524Z,16.00
2019-06-27T02:54:46.505Z,20.00
2019-06-27T02:55:46.497Z,24.00
2019-06-27T02:56:46.483Z,24.00
2019-06-27T02:57:46.501Z,28.00
2019-06-27T02:58:46.463Z,32.00
2019-06-27T02:59:46.451Z,36.00
2019-06-27T03:00:46.441Z,40.00
2019-06-27T03:01:46.427Z,44.00
2019-06-27T03:02:46.456Z,48.00
2019-06-27T03:03:46.404Z,60.00
2019-06-27T03:04:46.392Z,64.00
2019-06-27T03:05:46.387Z,72.00
2019-06-27T03:06:46.372Z,76.00
2019-06-27T03:07:46.362Z,88.00
2019-06-27T03:08:46.375Z,96.00
2019-06-27T03:09:46.336Z,104.00
2019-06-27T03:10:46.327Z,116.00
2019-06-27T03:11:46.322Z,132.00
2019-06-27T03:12:46.304Z,144.00
2019-06-27T03:13:46.328Z,156.00
2019-06-27T03:14:46.283Z,168.00
2019-06-27T03:15:46.271Z,188.00
2019-06-27T03:16:46.261Z,204.00
2019-06-27T03:17:46.250Z,220.00
2019-06-27T03:18:46.265Z,236.00
2019-06-27T03:19:46.233Z,260.00
2019-06-27T03:20:46.220Z,280.00
2019-06-27T03:21:46.236Z,300.00
2019-06-27T03:22:46.194Z,320.00
2019-06-27T03:23:46.210Z,348.00
2019-06-27T03:24:46.172Z,372.00
2019-06-27T03:25:46.162Z,404.00
2019-06-27T03:26:46.149Z,432.00
2019-06-27T03:27:46.139Z,460.00
2019-06-27T03:28:52.697Z,492.00
2019-06-27T03:29:47.117Z,520.00
2019-06-27T03:30:46.106Z,556.00
2019-06-27T03:31:46.098Z,588.00
2019-06-27T03:32:46.095Z,620.00
2019-06-27T03:33:46.284Z,660.00
2019-06-27T03:34:46.062Z,696.00
2019-06-27T03:35:46.067Z,736.00
2019-06-27T03:36:46.042Z,772.00
2019-06-27T03:37:46.032Z,812.00
2019-06-27T03:38:46.046Z,852.00
2019-06-27T03:39:46.007Z,892.00
2019-06-27T03:40:46.002Z,932.00
2019-06-27T03:41:45.990Z,972.00
2019-06-27T03:42:45.975Z,1012.00
2019-06-27T03:43:45.990Z,1052.00
2019-06-27T03:44:45.952Z,1092.00
2019-06-27T03:45:45.941Z,1136.00
2019-06-27T03:46:45.934Z,1180.00
2019-06-27T03:47:45.919Z,1220.00
2019-06-27T03:48:45.938Z,1260.00
2019-06-27T03:49:45.905Z,1300.00
2019-06-27T03:50:45.888Z,1348.00
2019-06-27T03:51:45.874Z,1392.00
2019-06-27T03:52:45.867Z,1436.00
2019-06-27T03:53:45.894Z,1480.00
2019-06-27T03:54:45.842Z,1524.00
2019-06-27T03:55:45.832Z,1568.00
2019-06-27T03:56:45.823Z,1612.00
2019-06-27T03:57:45.818Z,1656.00
2019-06-27T03:58:45.823Z,1704.00
2019-06-27T03:59:45.796Z,1752.00
2019-06-27T04:00:45.777Z,1800.00
2019-06-27T04:01:45.766Z,1840.00
2019-06-27T04:02:45.755Z,1884.00
2019-06-27T04:03:45.772Z,1928.00
2019-06-27T04:04:45.733Z,1968.00
2019-06-27T04:05:45.725Z,2012.00
2019-06-27T04:06:45.785Z,2052.00
2019-06-27T04:07:45.698Z,2092.00
2019-06-27T04:08:45.716Z,2140.00
2019-06-27T04:09:45.678Z,2188.00
2019-06-27T04:10:45.667Z,2236.00
2019-06-27T04:11:45.658Z,2280.00
2019-06-27T04:12:45.643Z,2320.00
2019-06-27T04:13:45.659Z,2364.00
2019-06-27T04:14:45.623Z,2408.00
2019-06-27T04:15:45.609Z,2456.00
2019-06-27T04:16:48.958Z,2500.00
2019-06-27T04:17:45.589Z,2544.00
2019-06-27T04:18:45.602Z,2588.00
2019-06-27T04:19:45.579Z,2632.00
2019-06-27T04:20:45.556Z,2680.00
2019-06-27T04:21:45.546Z,2724.00
2019-06-27T04:22:45.539Z,2768.00
2019-06-27T04:23:45.550Z,2812.00
2019-06-27T04:24:45.515Z,2848.00
2019-06-27T04:25:45.506Z,2884.00
2019-06-27T04:26:45.494Z,2924.00
2019-06-27T04:27:45.479Z,2964.00
2019-06-27T04:28:45.492Z,3008.00
2019-06-27T04:29:45.459Z,3048.00
2019-06-27T04:30:45.450Z,3084.00
2019-06-27T04:31:45.437Z,3120.00
2019-06-27T04:32:45.427Z,3160.00
2019-06-27T04:33:45.438Z,3196.00
2019-06-27T04:34:45.403Z,3224.00
2019-06-27T04:35:45.396Z,3260.00
2019-06-27T04:36:45.382Z,3292.00
2019-06-27T04:37:45.373Z,3332.00
2019-06-27T04:38:45.384Z,3360.00
2019-06-27T04:39:45.346Z,3396.00
2019-06-27T04:40:45.337Z,3436.00
2019-06-27T04:41:45.327Z,3460.00
2019-06-27T04:42:45.315Z,3500.00
2019-06-27T04:43:45.332Z,3540.00
2019-06-27T04:44:45.295Z,3560.00
2019-06-27T04:45:45.282Z,3588.00
2019-06-27T04:46:45.272Z,3616.00
2019-06-27T04:47:45.262Z,3640.00
2019-06-27T04:48:45.276Z,3684.00
2019-06-27T04:49:45.244Z,3712.00
2019-06-27T04:50:45.230Z,3728.00
2019-06-27T04:51:45.220Z,3756.00
2019-06-27T04:52:45.209Z,3788.00
2019-06-27T04:53:45.222Z,3820.00
2019-06-27T04:54:45.190Z,3844.00
2019-06-27T04:55:45.180Z,3844.00
2019-06-27T04:56:45.166Z,3880.00
2019-06-27T04:57:45.157Z,3908.00
2019-06-27T04:58:45.170Z,3924.00
2019-06-27T04:59:53.138Z,3940.00
2019-06-27T05:00:46.123Z,3996.00
2019-06-27T05:01:45.111Z,4040.00
2019-06-27T05:02:45.104Z,4064.00
2019-06-27T05:03:45.115Z,4104.00
2019-06-27T05:04:45.078Z,4128.00
2019-06-27T05:05:45.069Z,4140.00
2019-06-27T05:06:45.059Z,4156.00
2019-06-27T05:07:45.049Z,4168.00
2019-06-27T05:08:45.062Z,4204.00
2019-06-27T05:09:45.024Z,4252.00
2019-06-27T05:10:45.013Z,4284.00
2019-06-27T05:11:45.004Z,4312.00
2019-06-27T05:12:44.994Z,4336.00
2019-06-27T05:13:45.004Z,4376.00
2019-06-27T05:14:44.970Z,4416.00
2019-06-27T05:15:44.985Z,4436.00
2019-06-27T05:16:44.949Z,4460.00
2019-06-27T05:17:44.936Z,4488.00
2019-06-27T05:18:44.950Z,4492.00
2019-06-27T05:19:44.913Z,4504.00
2019-06-27T05:20:44.903Z,4528.00
2019-06-27T05:21:44.894Z,4512.00
2019-06-27T05:22:44.882Z,4548.00
2019-06-27T05:23:44.896Z,4564.00
2019-06-27T05:24:44.861Z,4624.00
2019-06-27T05:25:44.851Z,4644.00
2019-06-27T05:26:44.839Z,4680.00
2019-06-27T05:27:44.851Z,4708.00
2019-06-27T05:28:44.842Z,4744.00
2019-06-27T05:29:44.808Z,4796.00
2019-06-27T05:30:44.802Z,4800.00
2019-06-27T05:31:44.787Z,4820.00
2019-06-27T05:32:44.776Z,4836.00
2019-06-27T05:33:44.791Z,4828.00
2019-06-27T05:34:44.846Z,4696.00
2019-06-27T05:35:44.744Z,4884.00
2019-06-27T05:36:44.732Z,4808.00
2019-06-27T05:37:44.742Z,4856.00
2019-06-27T05:38:44.734Z,4904.00
2019-06-27T05:39:44.705Z,4964.00
2019-06-27T05:40:44.693Z,4976.00
2019-06-27T05:41:44.686Z,5024.00
2019-06-27T05:42:44.689Z,5040.00
2019-06-27T05:43:44.683Z,5052.00
2019-06-27T05:44:44.648Z,5084.00
2019-06-27T05:45:44.637Z,5060.00
2019-06-27T05:46:44.647Z,5104.00
2019-06-27T05:47:44.625Z,5128.00
2019-06-27T05:48:44.635Z,5156.00
2019-06-27T05:49:44.597Z,5172.00
2019-06-27T05:50:44.585Z,5208.00
2019-06-27T05:51:44.585Z,5224.00
2019-06-27T05:52:44.565Z,5240.00
2019-06-27T05:53:45.718Z,5272.00
2019-06-27T05:54:44.540Z,5296.00
2019-06-27T05:55:44.536Z,5304.00
2019-06-27T05:56:44.525Z,5324.00
2019-06-27T05:57:44.513Z,5336.00
2019-06-27T05:58:44.566Z,5328.00
2019-06-27T05:59:44.528Z,5348.00
2019-06-27T06:00:44.516Z,5380.00
2019-06-27T06:01:44.506Z,5372.00
2019-06-27T06:02:44.472Z,5352.00
2019-06-27T06:03:44.461Z,5360.00
2019-06-27T06:04:44.459Z,5384.00
2019-06-27T06:05:44.434Z,5416.00
2019-06-27T06:06:44.444Z,5444.00
2019-06-27T06:07:44.424Z,5460.00
2019-06-27T06:08:44.415Z,5500.00
2019-06-27T06:09:44.380Z,5500.00
2019-06-27T06:10:44.369Z,5508.00
2019-06-27T06:11:44.364Z,5536.00
2019-06-27T06:12:44.376Z,5540.00
2019-06-27T06:13:44.341Z,5564.00
2019-06-27T06:14:44.330Z,5568.00
2019-06-27T06:15:44.317Z,5592.00
2019-06-27T06:16:44.387Z,5620.00
2019-06-27T06:17:44.378Z,5636.00
2019-06-27T06:18:44.287Z,5648.00
2019-06-27T06:19:44.298Z,5668.00
2019-06-27T06:20:44.277Z,5676.00
2019-06-27T06:21:44.257Z,5684.00
2019-06-27T06:22:44.338Z,5692.00
2019-06-27T06:23:44.246Z,5688.00
2019-06-27T06:24:44.257Z,5672.00
2019-06-27T06:25:44.449Z,5680.00
2019-06-27T06:26:44.214Z,5700.00
2019-06-27T06:27:44.217Z,5704.00
2019-06-27T06:28:44.192Z,5732.00
2019-06-27T06:29:44.171Z,5752.00
2019-06-27T06:30:45.254Z,5756.00
2019-06-27T06:31:44.155Z,5740.00
2019-06-27T06:32:44.167Z,5788.00
2019-06-27T06:33:44.159Z,5804.00
2019-06-27T06:34:44.125Z,5824.00
2019-06-27T06:35:44.154Z,5844.00
2019-06-27T06:36:44.101Z,5844.00
2019-06-27T06:37:44.111Z,5856.00
2019-06-27T06:38:44.077Z,5844.00
2019-06-27T06:39:44.073Z,5808.00
2019-06-27T06:40:44.055Z,5840.00
2019-06-27T06:41:44.047Z,5888.00
2019-06-27T06:42:44.057Z,5896.00
2019-06-27T06:43:44.027Z,5884.00
2019-06-27T06:44:44.018Z,5896.00
2019-06-27T06:45:44.007Z,5864.00
2019-06-27T06:46:43.999Z,5908.00
2019-06-27T06:47:44.061Z,5924.00
2019-06-27T06:48:43.988Z,5940.00
2019-06-27T06:49:43.963Z,5936.00
2019-06-27T06:50:43.953Z,5940.00
2019-06-27T06:51:43.954Z,5960.00
2019-06-27T06:52:43.966Z,5968.00
2019-06-27T06:53:43.922Z,5960.00
2019-06-27T06:54:43.910Z,5996.00
2019-06-27T06:55:43.905Z,5952.00
2019-06-27T06:56:43.892Z,5976.00
2019-06-27T06:57:43.929Z,5988.00
2019-06-27T06:58:43.868Z,5988.00
2019-06-27T06:59:43.860Z,5988.00
2019-06-27T07:00:56.997Z,6000.00
2019-06-27T07:01:45.838Z,5988.00
2019-06-27T07:02:43.849Z,5992.00
2019-06-27T07:03:43.889Z,6008.00
2019-06-27T07:04:43.805Z,6012.00
2019-06-27T07:05:43.795Z,6016.00
2019-06-27T07:06:43.805Z,5988.00
2019-06-27T07:07:43.797Z,6016.00
2019-06-27T07:08:43.763Z,6012.00
2019-06-27T07:09:43.756Z,6008.00
2019-06-27T07:10:43.773Z,5984.00
2019-06-27T07:11:43.736Z,6000.00
2019-06-27T07:12:43.811Z,5996.00
2019-06-27T07:13:43.720Z,5972.00
2019-06-27T07:14:43.704Z,6012.00
2019-06-27T07:15:43.704Z,5996.00
2019-06-27T07:16:43.751Z,6012.00
2019-06-27T07:17:43.801Z,5996.00
2019-06-27T07:18:43.669Z,6004.00
2019-06-27T07:19:43.650Z,6020.00
2019-06-27T07:20:43.640Z,6020.00
2019-06-27T07:21:44.169Z,6012.00
2019-06-27T07:22:43.621Z,6020.00
2019-06-27T07:23:43.638Z,6028.00
2019-06-27T07:24:43.744Z,6032.00
2019-06-27T07:25:43.592Z,6004.00
2019-06-27T07:26:43.579Z,6008.00
2019-06-27T07:27:43.570Z,6012.00
2019-06-27T07:28:43.582Z,6000.00
2019-06-27T07:29:43.549Z,6000.00
2019-06-27T07:30:43.544Z,6020.00
2019-06-27T07:31:43.537Z,6036.00
2019-06-27T07:32:43.521Z,6028.00
2019-06-27T07:33:43.531Z,6028.00
2019-06-27T07:34:43.527Z,6020.00
2019-06-27T07:35:43.486Z,6024.00
2019-06-27T07:36:43.477Z,6024.00
2019-06-27T07:37:43.499Z,6036.00
2019-06-27T07:38:46.936Z,6040.00
2019-06-27T07:39:43.450Z,6036.00
2019-06-27T07:40:43.435Z,6028.00
2019-06-27T07:41:43.424Z,6028.00
2019-06-27T07:42:43.419Z,6028.00
2019-06-27T07:43:43.437Z,6016.00
2019-06-27T07:44:43.452Z,6024.00
2019-06-27T07:45:43.383Z,6020.00
2019-06-27T07:46:43.381Z,6008.00
2019-06-27T07:47:43.365Z,6008.00
2019-06-27T07:48:43.362Z,6012.00
2019-06-27T07:49:43.368Z,6004.00
2019-06-27T07:50:43.332Z,6000.00
2019-06-27T07:51:43.323Z,5996.00
2019-06-27T07:52:43.315Z,5992.00
2019-06-27T07:53:43.302Z,6000.00
2019-06-27T07:54:43.317Z,5992.00
2019-06-27T07:55:43.285Z,6000.00
2019-06-27T07:56:46.214Z,6004.00
2019-06-27T07:57:43.261Z,6016.00
2019-06-27T07:58:43.252Z,6016.00
2019-06-27T07:59:43.262Z,6000.00
2019-06-27T08:00:43.243Z,5988.00
2019-06-27T08:01:43.225Z,5988.00
2019-06-27T08:02:43.210Z,5984.00
2019-06-27T08:03:43.200Z,5972.00
2019-06-27T08:04:43.217Z,5972.00
2019-06-27T08:05:43.185Z,5964.00
2019-06-27T08:06:43.176Z,5976.00
2019-06-27T08:07:43.171Z,5984.00
2019-06-27T08:08:43.148Z,5972.00
2019-06-27T08:09:43.160Z,5984.00
2019-06-27T08:10:43.131Z,6000.00
2019-06-27T08:11:43.118Z,6000.00
2019-06-27T08:12:43.107Z,5988.00
2019-06-27T08:13:43.100Z,5984.00
2019-06-27T08:14:43.129Z,5984.00
2019-06-27T08:15:43.112Z,6000.00
2019-06-27T08:16:43.066Z,5992.00
2019-06-27T08:17:43.065Z,5984.00
2019-06-27T08:18:43.088Z,5984.00
2019-06-27T08:19:43.037Z,5988.00
2019-06-27T08:20:43.048Z,5984.00
2019-06-27T08:21:43.016Z,5988.00
2019-06-27T08:22:43.011Z,5980.00
2019-06-27T08:23:43.043Z,5968.00
2019-06-27T08:24:42.986Z,5980.00
2019-06-27T08:25:43.053Z,5968.00
2019-06-27T08:26:42.979Z,5956.00
2019-06-27T08:27:43.049Z,5956.00
2019-06-27T08:28:42.947Z,5972.00
2019-06-27T08:29:42.964Z,5964.00
2019-06-27T08:30:42.938Z,5952.00
2019-06-27T08:31:51.412Z,5956.00
2019-06-27T08:32:43.909Z,5956.00
2019-06-27T08:33:42.902Z,5956.00
2019-06-27T08:34:43.021Z,5956.00
2019-06-27T08:35:42.874Z,5964.00
2019-06-27T08:36:42.865Z,5968.00
2019-06-27T08:37:42.857Z,5956.00
2019-06-27T08:38:42.843Z,5952.00
2019-06-27T08:39:42.928Z,5952.00
2019-06-27T08:40:42.838Z,5956.00
2019-06-27T08:41:42.815Z,5948.00
2019-06-27T08:42:42.802Z,5944.00
2019-06-27T08:43:42.794Z,5940.00
2019-06-27T08:44:42.806Z,5928.00
2019-06-27T08:45:42.770Z,5932.00
2019-06-27T08:46:42.761Z,5928.00
2019-06-27T08:47:42.821Z,5928.00
2019-06-27T08:48:42.741Z,5928.00
2019-06-27T08:49:42.758Z,5916.00
2019-06-27T08:50:42.719Z,5908.00
2019-06-27T08:51:42.710Z,5920.00
2019-06-27T08:52:42.701Z,5928.00
2019-06-27T08:53:42.689Z,5932.00
2019-06-27T08:54:42.707Z,5936.00
2019-06-27T08:55:42.675Z,5932.00
2019-06-27T08:56:43.104Z,5928.00
2019-06-27T08:57:42.649Z,5916.00
2019-06-27T08:58:42.637Z,5908.00
2019-06-27T08:59:42.651Z,5912.00
2019-06-27T09:00:45.750Z,5916.00
2019-06-27T09:01:42.639Z,5912.00
2019-06-27T09:02:42.600Z,5916.00
2019-06-27T09:03:42.653Z,5924.00
2019-06-27T09:04:42.581Z,5916.00
2019-06-27T09:05:42.565Z,5908.00
2019-06-27T09:06:42.584Z,5916.00
2019-06-27T09:07:42.546Z,5920.00
2019-06-27T09:08:42.533Z,5912.00
2019-06-27T09:09:42.526Z,5916.00
2019-06-27T09:10:42.518Z,5908.00
2019-06-27T09:11:42.526Z,5904.00
2019-06-27T09:12:42.495Z,5896.00
2019-06-27T09:13:42.503Z,5888.00
2019-06-27T09:14:42.517Z,5884.00
2019-06-27T09:15:42.556Z,5876.00
2019-06-27T09:16:46.447Z,5880.00
2019-06-27T09:17:42.516Z,5888.00
2019-06-27T09:18:42.507Z,5880.00
2019-06-27T09:19:44.162Z,5892.00
2019-06-27T09:20:42.681Z,5892.00
2019-06-27T09:21:43.264Z,5884.00
2019-06-27T09:22:42.669Z,5868.00
2019-06-27T09:23:42.387Z,5884.00
2019-06-27T09:24:42.416Z,5892.00
2019-06-27T09:25:42.543Z,5892.00
2019-06-27T09:26:42.406Z,5892.00
2019-06-27T09:27:42.513Z,5888.00
2019-06-27T09:28:42.359Z,5892.00
2019-06-27T09:29:42.393Z,5888.00
2019-06-27T09:30:42.374Z,5892.00
2019-06-27T09:31:42.320Z,5896.00
2019-06-27T09:32:42.286Z,5876.00
2019-06-27T09:33:42.320Z,5884.00
2019-06-27T09:34:42.279Z,5880.00
2019-06-27T09:35:42.258Z,5872.00
2019-06-27T09:36:42.350Z,5872.00
2019-06-27T09:37:42.239Z,5864.00
2019-06-27T09:38:42.243Z,5868.00
2019-06-27T09:39:42.214Z,5856.00
2019-06-27T09:40:42.204Z,5848.00
2019-06-27T09:41:42.264Z,5860.00
2019-06-27T09:42:42.183Z,5856.00
2019-06-27T09:43:42.175Z,5856.00
2019-06-27T09:44:42.411Z,5860.00
2019-06-27T09:45:42.154Z,5860.00
2019-06-27T09:46:42.166Z,5860.00
2019-06-27T09:47:42.134Z,5856.00
2019-06-27T09:48:42.124Z,5848.00
2019-06-27T09:49:42.185Z,5844.00
2019-06-27T09:50:42.102Z,5840.00
2019-06-27T09:51:42.146Z,5856.00
2019-06-27T09:52:42.082Z,5852.00
2019-06-27T09:53:42.127Z,5848.00
2019-06-27T09:54:42.063Z,5844.00
2019-06-27T09:55:42.068Z,5844.00
2019-06-27T09:56:42.041Z,5856.00
2019-06-27T09:57:42.161Z,5848.00
2019-06-27T09:58:42.019Z,5860.00
2019-06-27T09:59:42.009Z,5872.00
2019-06-27T10:00:42.000Z,5880.00
2019-06-27T10:01:41.990Z,5884.00
2019-06-27T10:02:42.945Z,5892.00
2019-06-27T10:03:41.969Z,5892.00
2019-06-27T10:04:41.978Z,5912.00
2019-06-27T10:05:41.951Z,5928.00
2019-06-27T10:06:42.040Z,5928.00
2019-06-27T10:07:41.984Z,5936.00
2019-06-27T10:08:41.918Z,5956.00
2019-06-27T10:09:41.907Z,5964.00
2019-06-27T10:10:41.935Z,5968.00
2019-06-27T10:11:41.891Z,5964.00
2019-06-27T10:12:43.304Z,5968.00
2019-06-27T10:13:41.869Z,5968.00
2019-06-27T10:14:41.861Z,5976.00
2019-06-27T10:15:41.862Z,5984.00
2019-06-27T10:16:41.836Z,5992.00
2019-06-27T10:17:41.851Z,6012.00
2019-06-27T10:18:41.816Z,6004.00
2019-06-27T10:19:41.805Z,6004.00
2019-06-27T10:20:41.794Z,6020.00
2019-06-27T10:21:41.783Z,6016.00
2019-06-27T10:22:41.832Z,6024.00
2019-06-27T10:23:41.788Z,6032.00
2019-06-27T10:24:41.754Z,6044.00
2019-06-27T10:25:41.745Z,6060.00
2019-06-27T10:26:41.735Z,6068.00
2019-06-27T10:27:41.802Z,6092.00
2019-06-27T10:28:41.712Z,6108.00
2019-06-27T10:29:41.702Z,6124.00
2019-06-27T10:30:41.705Z,6132.00
2019-06-27T10:31:41.700Z,6136.00
2019-06-27T10:32:57.777Z,6136.00
2019-06-27T10:33:42.661Z,6136.00
2019-06-27T10:34:41.651Z,6140.00
2019-06-27T10:35:41.689Z,6148.00
2019-06-27T10:36:41.630Z,6148.00
2019-06-27T10:37:41.620Z,6156.00
2019-06-27T10:38:41.609Z,6152.00
2019-06-27T10:39:41.614Z,6160.00
2019-06-27T10:40:41.615Z,6160.00
2019-06-27T10:41:41.580Z,6160.00
2019-06-27T10:42:41.810Z,6156.00
2019-06-27T10:43:41.561Z,6164.00
2019-06-27T10:44:41.562Z,6180.00
2019-06-27T10:45:41.567Z,6196.00
2019-06-27T10:46:41.530Z,6212.00
2019-06-27T10:47:41.557Z,6216.00
2019-06-27T10:48:41.514Z,6236.00
2019-06-27T10:49:41.500Z,6252.00
2019-06-27T10:50:41.494Z,6288.00
2019-06-27T10:51:41.477Z,6348.00
2019-06-27T10:52:41.480Z,6420.00
2019-06-27T10:53:41.482Z,6520.00
2019-06-27T10:54:41.449Z,6636.00
2019-06-27T10:55:41.446Z,6720.00
2019-06-27T10:56:41.427Z,6832.00
2019-06-27T10:57:41.416Z,7024.00
2019-06-27T10:58:41.429Z,7204.00
2019-06-27T10:59:41.414Z,7496.00
2019-06-27T11:00:41.427Z,7752.00
2019-06-27T11:01:41.390Z,7816.00
2019-06-27T11:02:41.377Z,7932.00
2019-06-27T11:03:41.379Z,8008.00
2019-06-27T11:04:41.376Z,8032.00
2019-06-27T11:05:41.360Z,7660.00
2019-06-27T11:06:41.323Z,7036.00
2019-06-27T11:07:41.393Z,6680.00
2019-06-27T11:08:41.330Z,6508.00
2019-06-27T11:09:41.295Z,6448.00
2019-06-27T11:10:41.307Z,6384.00
2019-06-27T11:11:41.272Z,6320.00
2019-06-27T11:12:44.864Z,6256.00
2019-06-27T11:13:57.652Z,6232.00
2019-06-27T11:14:58.046Z,6212.00
2019-06-27T11:15:42.240Z,6204.00
2019-06-27T11:16:41.224Z,6188.00
2019-06-27T11:17:41.221Z,6184.00
2019-06-27T11:18:41.225Z,6176.00
2019-06-27T11:19:52.063Z,6172.00
2019-06-27T11:20:42.180Z,6168.00
2019-06-27T11:21:41.173Z,6168.00
2019-06-27T11:22:41.171Z,6168.00
2019-06-27T11:23:41.195Z,6160.00
2019-06-27T11:24:41.146Z,6160.00
2019-06-27T11:25:41.134Z,6160.00
2019-06-27T11:26:41.119Z,6156.00
2019-06-27T11:27:41.115Z,6160.00
2019-06-27T11:28:41.124Z,6156.00
2019-06-27T11:29:41.086Z,6168.00
2019-06-27T11:30:41.078Z,6172.00
2019-06-27T11:31:41.071Z,6176.00
2019-06-27T11:32:41.063Z,6180.00
2019-06-27T11:33:41.071Z,6180.00
2019-06-27T11:34:41.036Z,6176.00
2019-06-27T11:35:41.027Z,6160.00
2019-06-27T11:36:41.043Z,6160.00
2019-06-27T11:37:41.005Z,6144.00
2019-06-27T11:38:40.994Z,6136.00
2019-06-27T11:39:40.986Z,6132.00
2019-06-27T11:40:40.977Z,6132.00
2019-06-27T11:41:41.001Z,6136.00
2019-06-27T11:42:40.955Z,6132.00
2019-06-27T11:43:40.944Z,6136.00
2019-06-27T11:44:40.935Z,6132.00
2019-06-27T11:45:40.928Z,6132.00
2019-06-27T11:46:40.939Z,6132.00
2019-06-27T11:47:40.903Z,6140.00
2019-06-27T11:48:40.892Z,6144.00
2019-06-27T11:49:40.884Z,6132.00
2019-06-27T11:50:40.882Z,6132.00
2019-06-27T11:51:40.889Z,6148.00
2019-06-27T11:52:40.854Z,6152.00
2019-06-27T11:53:40.856Z,6160.00
2019-06-27T11:54:40.835Z,6180.00
2019-06-27T11:55:40.820Z,6216.00
2019-06-27T11:56:40.845Z,6240.00
2019-06-27T11:57:40.801Z,6264.00
2019-06-27T11:58:40.799Z,6316.00
2019-06-27T11:59:40.779Z,6360.00
2019-06-27T12:00:40.770Z,6372.00
2019-06-27T12:01:40.786Z,6384.00
2019-06-27T12:02:40.758Z,6388.00
2019-06-27T12:03:49.217Z,6412.00
2019-06-27T12:04:41.727Z,6568.00
2019-06-27T12:05:40.717Z,6784.00
2019-06-27T12:06:40.734Z,7076.00
2019-06-27T12:07:40.698Z,7320.00
2019-06-27T12:08:40.686Z,7340.00
2019-06-27T12:09:40.687Z,7376.00
2019-06-27T12:10:40.667Z,7440.00
2019-06-27T12:11:40.680Z,7516.00
2019-06-27T12:12:40.648Z,7640.00
2019-06-27T12:13:40.642Z,7728.00
2019-06-27T12:14:40.711Z,7660.00
2019-06-27T12:15:40.613Z,7580.00
2019-06-27T12:16:40.627Z,7420.00
2019-06-27T12:17:40.592Z,7260.00
2019-06-27T12:18:40.582Z,7192.00
2019-06-27T12:19:40.577Z,7148.00
2019-06-27T12:20:40.562Z,7136.00
2019-06-27T12:21:40.583Z,7080.00
2019-06-27T12:22:40.547Z,7024.00
2019-06-27T12:23:40.537Z,7020.00